Time;durP1;ratioP1;P1;durP2;ratioP2;P2;SDS_P1;SDS_P2;PMS_P1;PMS_P2;Temp;Humidity;BMP_temperature;BMP_pressure;BME280_temperature;BME280_humidity;BME280_pressure;Samples;Min_cycle;Max_cycle;Signal;HPM_P1;HPM_P2
2020/12/12 00:00:58;;;;;;;15.20;12.87;;;6.00;99.90;;;;;;4952966;28;20450;-26
2020/12/12 00:03:24;;;;;;;13.90;10.50;;;6.10;99.90;;;;;;4955456;28;20450;-25
2020/12/12 00:05:51;;;;;;;14.27;12.00;;;6.20;99.90;;;;;;4972077;28;20524;-25
2020/12/12 00:08:19;;;;;;;16.50;12.60;;;6.30;99.90;;;;;;4975410;28;20918;-25
2020/12/12 00:10:47;;;;;;;13.60;11.77;;;6.30;99.90;;;;;;4974297;28;20457;-25
2020/12/12 00:13:15;;;;;;;14.13;11.50;;;6.30;99.90;;;;;;4972262;28;20493;-25
2020/12/12 00:15:43;;;;;;;18.00;12.43;;;6.30;99.90;;;;;;4972946;28;20459;-25
2020/12/12 00:18:10;;;;;;;17.37;13.40;;;6.30;99.90;;;;;;4972076;28;20489;-25
2020/12/12 00:20:37;;;;;;;15.73;11.50;;;6.30;99.90;;;;;;4972148;28;20540;-24
2020/12/12 00:23:05;;;;;;;15.63;11.80;;;6.40;99.90;;;;;;4972719;28;20863;-25
2020/12/12 00:25:32;;;;;;;17.10;12.40;;;6.40;99.90;;;;;;4971991;28;20543;-24
2020/12/12 00:27:59;;;;;;;18.13;13.93;;;6.40;99.90;;;;;;4971463;28;20576;-25
2020/12/12 00:30:27;;;;;;;15.37;13.40;;;6.40;99.90;;;;;;4968955;28;20608;-25
2020/12/12 00:32:57;;;;;;;17.83;13.70;;;6.40;99.90;;;;;;4971866;28;20457;-25
2020/12/12 00:35:24;;;;;;;19.07;13.17;;;6.40;99.90;;;;;;4972598;28;20725;-25
2020/12/12 00:37:55;;;;;;;24.87;15.57;;;6.40;99.90;;;;;;4972394;28;20500;-25
2020/12/12 00:40:24;;;;;;;17.80;14.17;;;6.20;99.90;;;;;;4962529;28;20465;-25
2020/12/12 00:42:52;;;;;;;20.63;14.90;;;5.90;99.90;;;;;;4972078;28;21016;-25
2020/12/12 00:45:18;;;;;;;18.67;15.00;;;5.80;99.90;;;;;;4971049;28;20610;-25
2020/12/12 00:47:50;;;;;;;19.60;15.57;;;5.90;99.90;;;;;;4986629;28;20448;-26
2020/12/12 00:50:18;;;;;;;17.13;13.70;;;5.90;99.90;;;;;;4951519;28;20508;-24
2020/12/12 00:52:45;;;;;;;20.50;14.70;;;5.90;99.90;;;;;;4980521;28;20559;-23
2020/12/12 00:55:12;;;;;;;17.73;13.83;;;6.00;99.90;;;;;;4984329;28;20871;-23
2020/12/12 00:57:39;;;;;;;23.83;17.07;;;6.00;99.90;;;;;;4986111;28;20441;-25
2020/12/12 01:00:06;;;;;;;24.50;16.50;;;6.10;99.90;;;;;;4972265;28;21059;-25
2020/12/12 01:02:33;;;;;;;20.23;15.67;;;6.20;99.90;;;;;;4971999;28;20467;-25
2020/12/12 01:05:02;;;;;;;23.30;15.73;;;6.30;99.90;;;;;;4971395;28;20556;-25
2020/12/12 01:07:30;;;;;;;21.70;15.70;;;6.30;99.90;;;;;;4970752;28;20547;-25
2020/12/12 01:09:57;;;;;;;19.73;15.70;;;6.30;99.90;;;;;;4970908;28;20535;-25
2020/12/12 01:12:24;;;;;;;20.20;14.90;;;6.30;99.90;;;;;;4972522;28;20465;-25
2020/12/12 01:14:52;;;;;;;21.93;15.60;;;6.40;99.90;;;;;;4971120;28;20489;-25
2020/12/12 01:17:18;;;;;;;20.73;16.20;;;6.40;99.90;;;;;;4973747;28;20473;-25
2020/12/12 01:19:45;;;;;;;19.53;15.70;;;6.50;99.90;;;;;;4987593;28;20881;-25
2020/12/12 01:22:14;;;;;;;20.30;15.80;;;6.50;99.90;;;;;;4975776;28;20468;-25
2020/12/12 01:24:42;;;;;;;21.43;15.63;;;6.50;99.90;;;;;;4957287;28;20470;-26
2020/12/12 01:27:10;;;;;;;19.20;14.00;;;6.50;99.90;;;;;;4967849;28;20512;-25
2020/12/12 01:29:38;;;;;;;17.30;13.87;;;6.60;99.90;;;;;;4975305;28;20464;-25
2020/12/12 01:32:08;;;;;;;19.33;15.60;;;6.60;99.90;;;;;;4974842;28;20445;-25
2020/12/12 01:34:34;;;;;;;17.63;15.20;;;6.60;99.90;;;;;;4975453;28;20449;-24
2020/12/12 01:37:01;;;;;;;17.97;14.90;;;6.50;99.90;;;;;;4976146;28;20461;-25
2020/12/12 01:39:30;;;;;;;18.73;13.77;;;6.50;99.90;;;;;;4974392;28;20564;-25
2020/12/12 01:41:57;;;;;;;18.97;14.00;;;6.60;99.90;;;;;;4975584;28;20461;-25
2020/12/12 01:44:24;;;;;;;16.63;13.07;;;6.60;99.90;;;;;;4975939;28;20477;-25
2020/12/12 01:46:55;;;;;;;21.97;14.73;;;6.60;99.90;;;;;;4975602;28;20552;-24
2020/12/12 01:49:22;;;;;;;16.80;13.93;;;6.60;99.90;;;;;;4976395;28;20449;-25
2020/12/12 01:51:50;;;;;;;23.60;15.87;;;6.60;99.90;;;;;;4976413;28;20464;-25
2020/12/12 01:54:18;;;;;;;15.30;12.93;;;6.60;99.90;;;;;;4976211;28;20480;-25
2020/12/12 01:56:49;;;;;;;20.40;16.03;;;6.60;99.90;;;;;;4974928;28;20444;-25
2020/12/12 01:59:16;;;;;;;20.07;14.73;;;6.60;99.90;;;;;;4975481;28;20560;-25
2020/12/12 02:01:47;;;;;;;22.13;17.30;;;6.70;99.90;;;;;;4979752;28;21034;-25
2020/12/12 02:04:22;;;;;;;21.80;17.17;;;6.70;99.90;;;;;;4978165;28;20508;-25
2020/12/12 02:06:50;;;;;;;18.00;14.33;;;6.70;99.90;;;;;;4979513;28;20515;-25
2020/12/12 02:09:18;;;;;;;19.40;14.60;;;6.70;99.90;;;;;;4975418;28;20461;-26
2020/12/12 02:11:47;;;;;;;18.70;14.20;;;6.70;99.90;;;;;;4974626;28;20798;-25
2020/12/12 02:14:14;;;;;;;16.90;14.27;;;6.60;99.90;;;;;;4970806;28;20519;-25
2020/12/12 02:16:52;;;;;;;21.17;15.00;;;6.50;99.90;;;;;;4973122;28;20476;-25
2020/12/12 02:19:20;;;;;;;17.93;14.47;;;6.30;99.90;;;;;;4973152;28;20452;-25
2020/12/12 02:21:54;;;;;;;17.10;14.33;;;6.20;99.90;;;;;;4974089;28;20512;-24
2020/12/12 02:24:21;;;;;;;18.97;15.10;;;5.90;99.90;;;;;;4974328;28;20555;-25
2020/12/12 02:26:49;;;;;;;19.40;14.13;;;5.80;99.90;;;;;;4974635;28;20512;-25
2020/12/12 02:29:17;;;;;;;17.37;12.90;;;5.70;99.90;;;;;;4974066;28;21031;-25
2020/12/12 02:31:45;;;;;;;16.07;12.90;;;5.60;99.90;;;;;;4974590;28;20526;-25
2020/12/12 02:34:12;;;;;;;17.83;13.57;;;5.60;99.90;;;;;;4974811;28;20438;-25
2020/12/12 02:36:40;;;;;;;17.60;14.53;;;5.50;99.90;;;;;;4974388;28;20515;-26
2020/12/12 02:39:09;;;;;;;18.03;14.73;;;5.60;99.90;;;;;;4974256;28;20512;-25
2020/12/12 02:41:36;;;;;;;18.50;14.57;;;5.70;99.90;;;;;;4974492;28;20815;-26
2020/12/12 02:44:03;;;;;;;22.73;15.87;;;5.90;99.90;;;;;;4973488;28;20557;-25
2020/12/12 02:46:31;;;;;;;18.97;14.50;;;5.90;99.90;;;;;;4986231;28;20561;-26
2020/12/12 02:48:59;;;;;;;19.03;14.97;;;6.00;99.90;;;;;;4993064;28;20535;-26
2020/12/12 02:51:26;;;;;;;19.70;15.40;;;5.90;99.90;;;;;;4995060;28;20965;-25
2020/12/12 02:53:54;;;;;;;20.80;14.33;;;6.00;99.90;;;;;;4996131;28;20522;-25
2020/12/12 02:56:22;;;;;;;16.30;14.33;;;5.90;99.90;;;;;;4996569;28;20440;-25
2020/12/12 02:58:50;;;;;;;17.47;13.20;;;5.90;99.90;;;;;;4998139;28;20547;-25
2020/12/12 03:01:17;;;;;;;17.97;14.80;;;5.90;99.90;;;;;;4996316;28;20471;-25
2020/12/12 03:03:43;;;;;;;16.47;14.03;;;5.80;99.90;;;;;;4992921;28;20458;-25
2020/12/12 03:06:10;;;;;;;18.00;14.57;;;5.80;99.90;;;;;;4993943;28;20574;-25
2020/12/12 03:08:36;;;;;;;19.83;13.20;;;5.80;99.90;;;;;;4992263;28;20818;-25
2020/12/12 03:11:04;;;;;;;15.43;12.53;;;5.90;99.90;;;;;;4980021;28;20550;-25
2020/12/12 03:13:32;;;;;;;19.77;14.10;;;5.90;99.90;;;;;;4973572;28;20548;-25
2020/12/12 03:16:01;;;;;;;14.57;11.93;;;5.90;99.90;;;;;;4974689;28;20483;-25
2020/12/12 03:18:32;;;;;;;14.47;11.57;;;5.80;99.90;;;;;;4973549;28;20499;-25
2020/12/12 03:20:59;;;;;;;17.57;12.77;;;5.80;99.90;;;;;;4954043;28;20797;-25
2020/12/12 03:23:26;;;;;;;15.53;12.67;;;5.80;99.90;;;;;;4973185;28;20977;-25
2020/12/12 03:25:53;;;;;;;17.20;13.27;;;5.90;99.90;;;;;;4973520;28;20497;-25
2020/12/12 03:28:21;;;;;;;16.97;13.47;;;5.90;99.90;;;;;;4974080;28;20552;-25
2020/12/12 03:30:51;;;;;;;18.43;11.47;;;5.90;99.90;;;;;;4988426;28;20473;-25
2020/12/12 03:33:20;;;;;;;19.33;13.00;;;5.90;99.90;;;;;;4973270;28;20461;-25
2020/12/12 03:35:47;;;;;;;14.20;12.70;;;6.00;99.90;;;;;;4986133;28;20926;-25
2020/12/12 03:38:13;;;;;;;17.40;13.50;;;6.00;99.90;;;;;;4974608;28;20453;-25
2020/12/12 03:40:40;;;;;;;16.47;13.30;;;6.00;99.90;;;;;;4973331;28;20457;-25
2020/12/12 03:43:07;;;;;;;19.70;14.23;;;6.10;99.90;;;;;;4973111;28;20545;-25
2020/12/12 03:45:35;;;;;;;15.23;12.57;;;6.00;99.90;;;;;;4972875;28;20461;-25
2020/12/12 03:48:03;;;;;;;15.73;13.03;;;6.10;99.90;;;;;;4972940;28;20859;-25
2020/12/12 03:50:29;;;;;;;15.47;13.03;;;6.10;99.90;;;;;;4972678;28;20741;-25
2020/12/12 03:52:56;;;;;;;13.73;11.80;;;6.10;99.90;;;;;;4971394;28;20467;-25
2020/12/12 03:55:24;;;;;;;16.73;13.80;;;6.10;99.90;;;;;;4973576;28;20511;-24
2020/12/12 03:57:50;;;;;;;16.83;14.10;;;6.10;99.90;;;;;;4973372;28;20477;-25
2020/12/12 04:00:18;;;;;;;20.53;15.07;;;6.20;99.90;;;;;;4986082;28;20508;-25
2020/12/12 04:02:45;;;;;;;18.80;14.23;;;6.20;99.90;;;;;;4972613;28;20781;-24
2020/12/12 04:05:13;;;;;;;14.40;12.90;;;6.20;99.90;;;;;;4972465;28;20584;-24
2020/12/12 04:07:43;;;;;;;16.33;12.97;;;6.20;99.90;;;;;;4973359;28;20865;-25
2020/12/12 04:10:12;;;;;;;14.30;12.80;;;6.20;99.90;;;;;;4987707;28;20465;-25
2020/12/12 04:12:39;;;;;;;15.40;13.07;;;6.30;99.90;;;;;;4971855;28;20461;-25
2020/12/12 04:15:05;;;;;;;18.00;13.27;;;6.30;99.90;;;;;;4972428;28;20465;-25
2020/12/12 04:17:34;;;;;;;17.73;12.87;;;6.30;99.90;;;;;;4971964;28;20569;-25
2020/12/12 04:20:00;;;;;;;15.40;12.90;;;6.40;99.90;;;;;;4972090;28;20560;-24
2020/12/12 04:22:28;;;;;;;20.33;12.47;;;6.40;99.90;;;;;;4972072;28;20630;-25
2020/12/12 04:24:55;;;;;;;18.37;14.73;;;6.40;99.90;;;;;;4972040;28;20579;-24
2020/12/12 04:27:22;;;;;;;17.17;14.43;;;6.40;99.90;;;;;;4991105;28;20436;-24
2020/12/12 04:29:49;;;;;;;21.60;15.30;;;6.40;99.90;;;;;;4992411;28;20510;-25
2020/12/12 04:32:16;;;;;;;20.30;15.93;;;6.40;99.90;;;;;;4992436;28;20439;-25
2020/12/12 04:34:42;;;;;;;37.93;26.50;;;6.40;99.90;;;;;;4991239;28;20456;-26
2020/12/12 04:37:09;;;;;;;28.93;19.20;;;6.40;99.90;;;;;;4992747;28;20780;-25
2020/12/12 04:39:36;;;;;;;25.80;19.43;;;6.40;99.90;;;;;;4992116;28;20460;-24
2020/12/12 04:42:08;;;;;;;25.17;19.37;;;6.40;99.90;;;;;;4991710;28;20492;-24
2020/12/12 04:44:36;;;;;;;21.63;16.43;;;6.40;99.90;;;;;;4990322;28;20767;-24
2020/12/12 04:47:04;;;;;;;23.73;17.67;;;6.30;99.90;;;;;;4990641;28;20444;-24
2020/12/12 04:49:33;;;;;;;23.37;17.20;;;6.20;99.90;;;;;;4990444;28;20452;-25
2020/12/12 04:52:03;;;;;;;20.03;15.23;;;6.30;99.90;;;;;;4992296;28;21026;-24
2020/12/12 04:54:32;;;;;;;20.93;15.50;;;6.40;99.90;;;;;;4994415;28;20539;-25
2020/12/12 04:57:04;;;;;;;20.40;15.17;;;6.30;99.90;;;;;;4995188;28;20470;-25
2020/12/12 04:59:32;;;;;;;18.67;13.90;;;6.30;99.90;;;;;;4995133;28;20908;-24
2020/12/12 05:02:01;;;;;;;19.57;15.13;;;6.30;99.90;;;;;;4994389;28;21274;-24
2020/12/12 05:04:28;;;;;;;20.07;13.50;;;6.20;99.90;;;;;;4994858;28;20476;-24
2020/12/12 05:06:55;;;;;;;25.47;17.10;;;6.20;99.90;;;;;;4993589;28;20479;-24
2020/12/12 05:09:23;;;;;;;25.30;20.57;;;6.30;99.90;;;;;;4996260;28;20769;-24
2020/12/12 05:11:50;;;;;;;20.40;15.73;;;6.30;99.90;;;;;;4997535;28;20475;-24
2020/12/12 05:14:18;;;;;;;18.70;14.60;;;6.30;99.90;;;;;;4998473;28;20526;-25
2020/12/12 05:16:47;;;;;;;21.23;17.00;;;6.20;99.90;;;;;;4996503;28;20452;-24
2020/12/12 05:19:17;;;;;;;16.83;14.83;;;6.20;99.90;;;;;;4996299;28;20483;-25
2020/12/12 05:21:50;;;;;;;21.17;15.43;;;6.20;99.90;;;;;;4975298;28;20488;-24
2020/12/12 05:24:17;;;;;;;22.40;16.50;;;6.20;99.90;;;;;;4976064;28;20516;-25
2020/12/12 05:26:44;;;;;;;19.10;15.13;;;6.20;99.90;;;;;;4975907;28;20444;-24
2020/12/12 05:29:13;;;;;;;20.97;15.17;;;6.20;99.90;;;;;;4974143;28;20547;-25
2020/12/12 05:31:41;;;;;;;18.57;14.00;;;6.20;99.90;;;;;;4974877;28;20793;-25
2020/12/12 05:34:12;;;;;;;21.27;15.30;;;6.20;99.90;;;;;;4989077;28;20445;-24
2020/12/12 05:36:40;;;;;;;18.17;15.53;;;6.30;99.90;;;;;;4975234;28;20484;-24
2020/12/12 05:39:10;;;;;;;16.83;12.67;;;6.30;99.90;;;;;;4965301;28;20464;-25
2020/12/12 05:41:38;;;;;;;17.23;14.13;;;6.30;99.90;;;;;;4976103;28;20468;-25
2020/12/12 05:44:06;;;;;;;18.87;14.53;;;6.30;99.90;;;;;;4975944;28;20524;-24
2020/12/12 05:46:34;;;;;;;18.83;13.03;;;6.30;99.90;;;;;;4972772;28;20946;-24
2020/12/12 05:49:03;;;;;;;19.17;14.00;;;6.30;99.90;;;;;;4973744;28;20445;-24
2020/12/12 05:51:33;;;;;;;16.30;13.03;;;6.20;99.90;;;;;;4975645;28;20449;-25
2020/12/12 05:54:02;;;;;;;18.13;12.67;;;6.20;99.90;;;;;;4962270;28;20863;-25
2020/12/12 05:56:31;;;;;;;15.90;12.63;;;6.20;99.90;;;;;;4975284;28;20923;-24
2020/12/12 05:58:59;;;;;;;17.27;13.50;;;6.10;99.90;;;;;;4988487;28;20449;-25
2020/12/12 06:01:28;;;;;;;18.33;13.40;;;6.10;99.90;;;;;;4973514;28;20469;-25
2020/12/12 06:04:02;;;;;;;20.00;14.53;;;6.10;99.90;;;;;;4972296;28;20453;-24
2020/12/12 06:06:34;;;;;;;18.73;14.17;;;6.10;99.90;;;;;;4973131;28;20476;-25
2020/12/12 06:09:07;;;;;;;17.50;12.87;;;6.00;99.90;;;;;;4974010;28;20429;-24
2020/12/12 06:11:39;;;;;;;17.00;13.00;;;6.00;99.90;;;;;;4975185;28;20503;-25
2020/12/12 06:14:07;;;;;;;20.67;16.40;;;5.90;99.90;;;;;;4973353;28;20491;-24
2020/12/12 06:16:36;;;;;;;19.20;13.77;;;5.90;99.90;;;;;;4974461;28;20903;-24
2020/12/12 06:19:10;;;;;;;21.63;15.83;;;5.80;99.90;;;;;;4974291;28;20441;-24
2020/12/12 06:21:39;;;;;;;19.50;14.63;;;5.70;99.90;;;;;;4973200;28;20948;-25
2020/12/12 06:24:09;;;;;;;18.80;13.77;;;5.70;99.90;;;;;;4973822;28;20960;-24
2020/12/12 06:26:50;;;;;;;19.80;16.13;;;5.60;99.90;;;;;;4972792;28;20907;-25
2020/12/12 06:29:18;;;;;;;20.63;16.77;;;5.60;99.90;;;;;;4985358;28;20522;-24
2020/12/12 06:31:46;;;;;;;19.80;14.60;;;5.60;99.90;;;;;;4989660;28;20534;-24
2020/12/12 06:34:13;;;;;;;23.30;16.13;;;5.60;99.90;;;;;;4973195;28;20583;-24
2020/12/12 06:36:51;;;;;;;21.83;15.67;;;5.50;99.90;;;;;;4972648;28;20442;-25
2020/12/12 06:39:22;;;;;;;19.60;14.30;;;5.50;99.90;;;;;;4966184;28;20452;-25
2020/12/12 06:41:53;;;;;;;19.90;14.97;;;5.50;99.90;;;;;;4973596;28;20449;-24
2020/12/12 06:44:37;;;;;;;18.37;13.40;;;5.50;99.90;;;;;;4971998;28;20887;-24
2020/12/12 06:47:06;;;;;;;18.13;14.03;;;5.50;99.90;;;;;;4970781;28;20550;-24
2020/12/12 06:49:32;;;;;;;17.70;14.10;;;5.50;99.90;;;;;;4972328;28;20457;-24
2020/12/12 06:52:00;;;;;;;20.10;14.67;;;5.70;99.90;;;;;;4972947;28;20441;-24
2020/12/12 06:54:28;;;;;;;18.10;14.60;;;5.70;99.90;;;;;;4972971;28;20453;-24
2020/12/12 06:56:55;;;;;;;17.13;14.07;;;5.80;99.90;;;;;;4973211;28;20461;-26
2020/12/12 06:59:28;;;;;;;22.40;15.60;;;5.90;99.90;;;;;;4974221;28;20492;-24
2020/12/12 07:01:56;;;;;;;18.30;14.20;;;5.90;99.90;;;;;;4973718;28;20468;-24
2020/12/12 07:04:31;;;;;;;18.30;13.90;;;6.00;99.90;;;;;;4955399;28;20911;-24
2020/12/12 07:07:00;;;;;;;16.70;12.80;;;6.00;99.90;;;;;;4971668;28;20548;-25
2020/12/12 07:09:29;;;;;;;17.70;13.40;;;6.00;99.90;;;;;;4971922;28;20458;-24
2020/12/12 07:11:59;;;;;;;16.03;13.20;;;6.00;99.90;;;;;;4973494;28;21026;-24
2020/12/12 07:14:27;;;;;;;18.53;13.33;;;6.00;99.90;;;;;;4991298;28;20580;-24
2020/12/12 07:16:57;;;;;;;15.83;12.90;;;6.00;99.90;;;;;;4991790;28;20476;-24
2020/12/12 07:19:38;;;;;;;39.97;26.50;;;6.00;99.90;;;;;;4991702;28;20506;-24
2020/12/12 07:22:08;;;;;;;26.17;19.17;;;6.10;99.90;;;;;;4993571;28;20444;-24
2020/12/12 07:24:36;;;;;;;29.23;18.80;;;6.10;99.90;;;;;;4991277;28;20452;-24
2020/12/12 07:27:06;;;;;;;22.70;15.63;;;6.10;99.90;;;;;;4989098;28;20566;-25
2020/12/12 07:29:34;;;;;;;25.17;14.03;;;6.20;99.90;;;;;;4989743;28;21118;-24
2020/12/12 07:32:02;;;;;;;19.40;15.03;;;6.30;99.90;;;;;;4989486;28;20566;-24
2020/12/12 07:34:29;;;;;;;28.83;21.07;;;6.30;99.90;;;;;;4990231;28;20574;-25
2020/12/12 07:37:00;;;;;;;28.63;22.20;;;6.40;99.90;;;;;;4984145;28;21216;-25
2020/12/12 07:39:30;;;;;;;28.33;19.07;;;6.40;99.90;;;;;;4969882;28;20446;-24
2020/12/12 07:41:59;;;;;;;18.53;14.10;;;6.40;99.90;;;;;;4970115;28;20535;-24
2020/12/12 07:44:26;;;;;;;23.43;18.57;;;6.40;99.90;;;;;;4971476;28;20938;-24
2020/12/12 07:46:54;;;;;;;22.77;16.30;;;6.50;99.90;;;;;;4969876;28;20446;-24
2020/12/12 07:49:21;;;;;;;23.17;16.10;;;6.40;99.90;;;;;;4969695;28;20440;-25
2020/12/12 07:51:47;;;;;;;38.17;29.60;;;6.40;99.90;;;;;;4969233;28;20527;-24
2020/12/12 07:54:17;;;;;;;24.07;18.07;;;6.50;99.90;;;;;;4970089;28;20503;-25
2020/12/12 07:56:50;;;;;;;29.87;19.90;;;6.50;99.90;;;;;;4969589;28;21085;-25
2020/12/12 07:59:19;;;;;;;16.53;13.87;;;6.60;99.90;;;;;;4968543;28;20551;-25
2020/12/12 08:01:48;;;;;;;17.50;13.00;;;6.60;99.90;;;;;;4985438;28;20449;-25
2020/12/12 08:04:20;;;;;;;15.17;11.57;;;6.70;99.90;;;;;;4969549;28;20504;-25
2020/12/12 08:06:46;;;;;;;14.67;12.27;;;6.70;99.90;;;;;;4983626;28;20480;-25
2020/12/12 08:09:18;;;;;;;15.57;12.07;;;6.70;99.90;;;;;;4970254;28;20433;-25
2020/12/12 08:11:54;;;;;;;15.80;12.30;;;6.70;99.90;;;;;;4967766;28;20446;-25
2020/12/12 08:14:21;;;;;;;13.73;11.80;;;6.70;99.90;;;;;;4968250;28;20496;-25
2020/12/12 08:16:53;;;;;;;14.07;10.07;;;6.80;99.90;;;;;;4967812;28;20508;-25
2020/12/12 08:19:20;;;;;;;18.97;10.93;;;6.90;99.90;;;;;;4967589;28;20456;-24
2020/12/12 08:21:50;;;;;;;13.30;8.83;;;6.90;99.90;;;;;;4966254;28;20539;-25
2020/12/12 08:24:19;;;;;;;14.67;12.87;;;7.00;99.90;;;;;;4969039;28;20460;-25
2020/12/12 08:26:45;;;;;;;15.23;11.80;;;7.10;99.90;;;;;;4947697;28;20466;-25
2020/12/12 08:29:12;;;;;;;8.87;7.97;;;7.20;99.90;;;;;;4949604;28;20442;-25
2020/12/12 08:31:40;;;;;;;10.03;8.83;;;7.20;99.90;;;;;;4947986;28;20521;-25
2020/12/12 08:34:09;;;;;;;12.40;9.43;;;7.20;99.90;;;;;;4958194;28;20560;-25
2020/12/12 08:36:37;;;;;;;16.20;9.57;;;7.20;99.90;;;;;;4965245;28;20449;-25
2020/12/12 08:39:06;;;;;;;13.00;11.60;;;7.20;99.90;;;;;;4968768;28;20535;-25
2020/12/12 08:41:35;;;;;;;14.17;12.67;;;7.30;99.90;;;;;;4967914;28;20501;-25
2020/12/12 08:44:04;;;;;;;15.00;13.23;;;7.40;99.90;;;;;;4966730;28;20464;-25
2020/12/12 08:46:32;;;;;;;14.20;10.47;;;7.40;99.90;;;;;;4965886;28;20584;-25
2020/12/12 08:49:02;;;;;;;13.87;10.77;;;7.30;99.90;;;;;;4966994;28;20467;-25
2020/12/12 08:51:31;;;;;;;15.10;12.10;;;7.40;99.90;;;;;;4968400;28;20441;-25
2020/12/12 08:53:59;;;;;;;13.50;10.70;;;7.50;99.90;;;;;;4967620;28;20437;-25
2020/12/12 08:56:29;;;;;;;45.40;29.37;;;7.60;99.90;;;;;;4966409;28;20519;-25
2020/12/12 08:58:57;;;;;;;39.20;25.43;;;7.70;99.90;;;;;;4968371;28;20507;-25
2020/12/12 09:01:38;;;;;;;38.43;26.77;;;7.80;99.90;;;;;;4966390;28;20494;-25
2020/12/12 09:04:21;;;;;;;15.33;12.20;;;7.90;99.90;;;;;;4969336;28;20456;-25
2020/12/12 09:06:58;;;;;;;6.33;5.67;;;8.00;99.90;;;;;;4967571;28;20591;-25
2020/12/12 09:09:26;;;;;;;6.03;4.80;;;8.10;99.90;;;;;;4969335;28;20939;-25
2020/12/12 09:11:59;;;;;;;7.20;5.90;;;8.20;99.90;;;;;;4968783;28;20767;-25
2020/12/12 09:14:28;;;;;;;6.20;5.60;;;8.40;99.90;;;;;;4967127;28;20551;-25
2020/12/12 09:16:56;;;;;;;5.33;4.83;;;8.60;99.90;;;;;;4966193;28;20484;-25
2020/12/12 09:19:25;;;;;;;7.00;6.40;;;8.70;99.90;;;;;;4963459;28;20460;-25
2020/12/12 09:21:54;;;;;;;6.57;5.97;;;8.90;99.90;;;;;;4963823;28;21076;-25
2020/12/12 09:24:22;;;;;;;5.40;4.90;;;9.00;99.90;;;;;;4961973;28;20461;-25
2020/12/12 09:26:51;;;;;;;10.50;9.40;;;9.10;99.90;;;;;;4978158;28;21251;-25
2020/12/12 09:29:18;;;;;;;6.13;5.63;;;9.20;99.90;;;;;;4943356;28;20535;-25
2020/12/12 09:31:49;;;;;;;7.73;6.90;;;9.30;99.90;;;;;;4963320;28;20954;-25
2020/12/12 09:34:16;;;;;;;10.43;9.47;;;9.30;99.90;;;;;;4963972;28;20531;-25
2020/12/12 09:36:43;;;;;;;11.80;8.97;;;9.30;99.90;;;;;;4961884;28;20496;-25
2020/12/12 09:39:10;;;;;;;17.67;9.20;;;9.30;99.90;;;;;;4964548;28;20990;-26
2020/12/12 09:41:37;;;;;;;9.07;8.17;;;9.30;99.90;;;;;;4966562;28;20492;-25
2020/12/12 09:44:03;;;;;;;12.97;10.50;;;9.30;99.90;;;;;;4966618;28;20461;-26
2020/12/12 09:46:30;;;;;;;6.50;6.00;;;9.20;99.90;;;;;;4967663;28;20612;-25
2020/12/12 09:48:56;;;;;;;8.20;7.20;;;9.20;99.90;;;;;;4963405;28;20488;-25
2020/12/12 09:51:23;;;;;;;9.17;8.37;;;9.10;99.90;;;;;;4966447;28;20445;-25
2020/12/12 09:53:52;;;;;;;7.90;7.20;;;9.10;99.90;;;;;;4963202;28;20463;-25
2020/12/12 09:56:18;;;;;;;7.60;6.90;;;9.10;99.90;;;;;;4966336;28;20459;-25
2020/12/12 09:58:47;;;;;;;8.00;6.97;;;9.20;99.90;;;;;;4965496;28;20549;-25
2020/12/12 10:01:14;;;;;;;8.27;7.47;;;9.20;99.90;;;;;;4983275;28;21169;-25
2020/12/12 10:03:41;;;;;;;7.70;6.87;;;9.20;99.90;;;;;;4965907;28;20846;-25
2020/12/12 10:06:09;;;;;;;9.10;7.83;;;9.20;99.90;;;;;;4964945;28;20614;-25
2020/12/12 10:08:36;;;;;;;8.40;6.40;;;9.30;99.90;;;;;;4979295;28;20519;-25
2020/12/12 10:11:07;;;;;;;7.50;6.80;;;9.40;99.90;;;;;;4964797;28;20519;-24
2020/12/12 10:13:34;;;;;;;7.43;6.70;;;9.40;99.90;;;;;;4962483;28;20555;-25
2020/12/12 10:16:01;;;;;;;7.07;6.47;;;9.50;99.90;;;;;;4962969;28;20452;-25
2020/12/12 10:18:28;;;;;;;7.10;6.50;;;9.60;99.90;;;;;;4963699;28;21002;-25
2020/12/12 10:20:55;;;;;;;7.33;6.63;;;9.60;99.90;;;;;;4964603;28;20752;-25
2020/12/12 10:23:21;;;;;;;6.93;6.33;;;9.60;99.90;;;;;;4964047;28;20987;-25
2020/12/12 10:25:48;;;;;;;7.07;5.93;;;9.60;99.90;;;;;;4965204;28;20485;-25
2020/12/12 10:28:16;;;;;;;6.13;5.63;;;9.60;99.90;;;;;;4964874;28;20511;-26
2020/12/12 10:30:43;;;;;;;8.10;7.30;;;9.60;99.90;;;;;;4964582;28;20531;-25
2020/12/12 10:33:12;;;;;;;7.73;6.13;;;9.50;99.90;;;;;;4963759;28;20456;-25
2020/12/12 10:35:39;;;;;;;6.33;5.73;;;9.50;99.90;;;;;;4965212;28;20468;-25
2020/12/12 10:38:07;;;;;;;6.00;5.50;;;9.50;99.90;;;;;;4966046;28;20449;-25
2020/12/12 10:40:36;;;;;;;6.50;6.00;;;9.50;99.90;;;;;;4965828;28;20536;-25
2020/12/12 10:43:05;;;;;;;7.23;6.53;;;9.60;99.90;;;;;;4964433;28;20463;-25
2020/12/12 10:45:33;;;;;;;5.83;5.40;;;9.60;99.90;;;;;;4965071;28;20514;-25
2020/12/12 10:48:00;;;;;;;6.93;6.33;;;9.60;99.90;;;;;;4965465;28;20535;-25
2020/12/12 10:50:30;;;;;;;8.80;8.00;;;9.60;99.90;;;;;;4964421;28;20776;-25
2020/12/12 10:52:57;;;;;;;7.40;6.80;;;9.70;99.90;;;;;;4964594;28;20778;-24
2020/12/12 10:55:25;;;;;;;7.73;6.93;;;9.70;99.90;;;;;;4963540;28;20758;-25
2020/12/12 10:57:51;;;;;;;5.70;5.20;;;9.80;99.90;;;;;;4964300;28;20453;-24
2020/12/12 11:00:23;;;;;;;6.13;5.63;;;9.90;99.90;;;;;;4963186;28;20449;-24
2020/12/12 11:02:53;;;;;;;7.10;6.40;;;9.90;99.90;;;;;;4959677;28;20457;-24
2020/12/12 11:05:22;;;;;;;6.90;6.30;;;9.80;99.90;;;;;;4961144;28;20922;-24
2020/12/12 11:07:49;;;;;;;7.57;6.87;;;9.80;99.90;;;;;;4960448;28;20477;-24
2020/12/12 11:10:18;;;;;;;6.80;6.20;;;9.90;99.90;;;;;;4961470;28;20453;-24
2020/12/12 11:12:51;;;;;;;6.37;5.87;;;10.00;99.90;;;;;;4960780;28;20471;-26
2020/12/12 11:15:19;;;;;;;6.57;5.97;;;9.90;99.90;;;;;;4960906;28;20519;-26
2020/12/12 11:17:46;;;;;;;7.30;6.57;;;9.90;99.90;;;;;;4961550;28;20484;-25
2020/12/12 11:20:16;;;;;;;8.10;6.40;;;10.00;99.90;;;;;;4963120;28;20450;-25
2020/12/12 11:22:43;;;;;;;6.90;6.37;;;10.00;99.90;;;;;;4961214;28;20461;-25
2020/12/12 11:25:12;;;;;;;6.63;6.03;;;10.10;99.90;;;;;;4962509;28;20938;-25
2020/12/12 11:27:40;;;;;;;6.67;6.07;;;10.10;99.90;;;;;;4969528;28;20464;-25
2020/12/12 11:30:11;;;;;;;6.97;6.27;;;9.90;99.90;;;;;;4962986;28;20575;-26
2020/12/12 11:32:38;;;;;;;6.30;5.70;;;9.90;99.90;;;;;;4959239;28;20556;-26
2020/12/12 11:35:11;;;;;;;5.87;5.37;;;9.80;99.90;;;;;;4959266;28;20452;-26
2020/12/12 11:40:28;;;;;;;6.43;5.93;;;9.80;99.90;;;;;;4960608;28;20914;-26
2020/12/12 11:46:10;;;;;;;5.33;5.00;;;9.80;99.90;;;;;;4945474;28;20522;-25
2020/12/12 11:48:36;;;;;;;6.40;5.80;;;9.70;99.90;;;;;;4961717;28;21196;-25
2020/12/12 11:51:03;;;;;;;6.83;6.23;;;9.70;99.90;;;;;;4959838;28;20671;-25
2020/12/12 11:53:32;;;;;;;6.50;6.00;;;9.80;99.90;;;;;;4959835;28;20441;-25
2020/12/12 11:55:58;;;;;;;6.83;6.33;;;9.80;99.90;;;;;;4961411;28;20839;-25
2020/12/12 11:58:26;;;;;;;6.10;5.70;;;9.80;99.90;;;;;;4961393;28;20497;-25
2020/12/12 12:00:55;;;;;;;7.93;6.40;;;9.80;99.90;;;;;;4958684;28;20449;-25
2020/12/12 12:03:22;;;;;;;7.50;6.90;;;9.70;99.90;;;;;;4959465;28;20520;-25
2020/12/12 12:05:50;;;;;;;6.77;6.10;;;9.80;99.90;;;;;;4959112;28;20668;-26
2020/12/12 12:08:27;;;;;;;5.50;5.10;;;9.90;99.90;;;;;;4960703;28;20454;-25
2020/12/12 12:11:08;;;;;;;8.40;5.63;;;9.80;99.90;;;;;;4962146;28;20451;-25
2020/12/12 12:13:36;;;;;;;6.70;6.00;;;9.90;99.90;;;;;;4963299;28;20828;-25
2020/12/12 12:16:04;;;;;;;6.30;5.80;;;9.90;99.90;;;;;;4959843;28;21198;-25
2020/12/12 12:18:33;;;;;;;6.83;6.33;;;9.80;99.90;;;;;;4962524;28;20547;-25
2020/12/12 12:21:04;;;;;;;6.97;6.27;;;9.90;99.90;;;;;;4963858;28;20492;-25
2020/12/12 12:23:35;;;;;;;6.40;5.80;;;9.90;99.90;;;;;;4963048;28;20441;-25
2020/12/12 12:26:05;;;;;;;6.27;5.67;;;9.90;99.90;;;;;;4961436;28;20487;-25
2020/12/12 12:28:32;;;;;;;6.30;5.77;;;9.90;99.90;;;;;;4962013;28;20548;-25
2020/12/12 12:31:00;;;;;;;6.27;5.77;;;9.80;99.90;;;;;;4959101;28;20524;-25
2020/12/12 12:33:27;;;;;;;6.80;5.60;;;9.80;99.90;;;;;;4961694;28;20921;-25
2020/12/12 12:35:55;;;;;;;7.20;5.77;;;9.90;99.90;;;;;;4962139;28;20445;-25
2020/12/12 12:38:22;;;;;;;6.10;5.60;;;9.90;99.90;;;;;;4943705;28;20465;-25
2020/12/12 12:40:50;;;;;;;6.90;6.30;;;9.80;99.90;;;;;;4978057;28;20976;-25
2020/12/12 12:43:17;;;;;;;8.03;5.57;;;9.70;99.90;;;;;;4963215;28;20472;-25
2020/12/12 12:45:45;;;;;;;6.73;6.13;;;9.70;99.90;;;;;;4959364;28;20592;-25
2020/12/12 12:48:13;;;;;;;7.70;6.30;;;9.70;99.90;;;;;;4962271;28;20441;-25
2020/12/12 12:50:41;;;;;;;8.07;6.23;;;9.70;99.90;;;;;;4963042;28;20759;-25
2020/12/12 12:53:11;;;;;;;6.07;5.47;;;9.70;99.90;;;;;;4959931;28;20492;-25
2020/12/12 12:55:38;;;;;;;6.07;5.37;;;9.70;99.90;;;;;;4960769;28;20750;-25